Afton, Iowa
Current Conditions -  °F | °C
As of 7:35 PM on Monday 24 Nov 2014 (Local Time) from KCSQ Reporting Station
Broken Clouds Broken Clouds  
Wind Chill: -11°   Ceiling: 4000
Heat Index: -4°   Visibility: 10mi
Dew Point: -8°   Wind: 16mph
Humidity: 74%   Direction: 310°NW
Pressure: 29.91"   Gusts: NA
Location:  41.03°N, 94.2°W
Report Text: KCSQ 250135Z AUTO 31014KT 10SM SCT033 BKN040 M04/M08 A2991 RMK AO2
Loading
Personal Weather Stations






























Interactive Weather Map New forecast layout! Learn more

10-Day Weather Forecast

Advertisements
Track Severe Weather on mobile